createdAt,value
2022-11-03T04:09:05.155Z,5.40
2022-11-03T04:12:05.087Z,5.40
2022-11-03T04:14:53.005Z,5.40
2022-11-03T04:17:39.596Z,5.40
2022-11-03T04:20:31.084Z,5.40
2022-11-03T04:22:59.385Z,5.40
2022-11-03T04:25:29.014Z,5.40
2022-11-03T04:27:57.464Z,5.50
2022-11-03T04:30:26.479Z,5.50
2022-11-03T04:32:55.674Z,5.50
2022-11-03T04:35:25.478Z,5.50
2022-11-03T04:37:58.134Z,5.60
2022-11-03T04:40:28.521Z,5.50
2022-11-03T04:42:57.261Z,5.50
2022-11-03T04:45:30.448Z,5.50
2022-11-03T04:48:01.135Z,5.50
2022-11-03T04:50:29.491Z,5.40
2022-11-03T04:52:59.819Z,5.50
2022-11-03T04:55:29.540Z,5.40
2022-11-03T04:58:01.467Z,5.60
2022-11-03T05:00:29.900Z,5.60
2022-11-03T05:02:58.223Z,5.70
2022-11-03T05:05:27.946Z,5.90
2022-11-03T05:07:57.736Z,5.80
2022-11-03T05:10:28.220Z,5.90
2022-11-03T05:12:58.811Z,5.90
2022-11-03T05:15:32.823Z,5.90
2022-11-03T05:18:02.880Z,5.80
2022-11-03T05:20:38.855Z,5.80
2022-11-03T05:23:09.274Z,5.80
2022-11-03T05:25:41.222Z,5.80
2022-11-03T05:28:23.110Z,5.80
2022-11-03T05:30:54.520Z,5.90
2022-11-03T05:33:27.781Z,5.90
2022-11-03T05:35:58.468Z,5.90
2022-11-03T05:38:33.691Z,5.80
2022-11-03T05:41:07.554Z,5.80
2022-11-03T05:43:42.296Z,5.80
2022-11-03T05:46:12.799Z,5.80
2022-11-03T05:48:45.033Z,5.70
2022-11-03T05:51:20.515Z,5.70
2022-11-03T05:53:51.718Z,5.70
2022-11-03T05:56:23.000Z,5.60
2022-11-03T05:58:56.973Z,5.50
2022-11-03T06:01:30.741Z,5.50
2022-11-03T06:04:01.849Z,5.50
2022-11-03T06:06:40.318Z,5.50
2022-11-03T06:09:20.173Z,5.50
2022-11-03T06:11:49.086Z,5.50
2022-11-03T06:14:24.723Z,5.50
2022-11-03T06:16:59.484Z,5.50
2022-11-03T06:19:37.018Z,5.60
2022-11-03T06:22:13.685Z,5.40
2022-11-03T06:24:42.815Z,5.50
2022-11-03T06:27:14.401Z,5.50
2022-11-03T06:29:53.232Z,5.60
2022-11-03T06:32:21.951Z,5.70
2022-11-03T06:34:53.500Z,5.70
2022-11-03T06:37:24.841Z,5.80
2022-11-03T06:40:00.000Z,5.80
2022-11-03T06:42:32.078Z,5.90
2022-11-03T06:45:13.522Z,5.90
2022-11-03T06:47:42.314Z,6.00
2022-11-03T06:50:22.882Z,6.20
2022-11-03T06:52:51.821Z,6.40
2022-11-03T06:55:27.417Z,6.50
2022-11-03T06:57:59.939Z,6.60
2022-11-03T07:00:36.198Z,6.70
2022-11-03T07:03:14.179Z,6.90
2022-11-03T07:05:44.960Z,6.80
2022-11-03T07:08:24.529Z,7.00
2022-11-03T07:11:04.484Z,7.10
2022-11-03T07:13:37.231Z,7.20
2022-11-03T07:16:19.845Z,7.40
2022-11-03T07:18:52.989Z,7.70
2022-11-03T07:21:34.857Z,8.40
2022-11-03T07:24:06.366Z,9.20
2022-11-03T07:26:48.727Z,9.60
2022-11-03T07:29:24.886Z,10.00
2022-11-03T07:32:02.086Z,10.00
2022-11-03T07:34:34.798Z,9.90
2022-11-03T07:37:05.387Z,9.70
2022-11-03T07:39:42.661Z,9.50
2022-11-03T07:42:22.902Z,9.20
2022-11-03T07:44:54.579Z,9.30
2022-11-03T07:47:26.809Z,9.20
2022-11-03T07:49:56.240Z,9.10
2022-11-03T07:52:27.062Z,9.20
2022-11-03T07:54:58.084Z,9.30
2022-11-03T07:57:30.492Z,9.30
2022-11-03T08:00:05.482Z,9.40
2022-11-03T08:02:50.349Z,9.30
2022-11-03T08:05:21.191Z,9.30
2022-11-03T08:07:49.540Z,9.30
2022-11-03T08:10:22.141Z,9.30
2022-11-03T08:12:52.417Z,9.30
2022-11-03T08:15:21.081Z,9.30
2022-11-03T08:17:56.232Z,9.40
2022-11-03T08:20:27.344Z,9.30
2022-11-03T08:23:24.737Z,9.30
2022-11-03T08:25:56.022Z,9.40
2022-11-03T08:28:30.636Z,9.40
2022-11-03T08:31:08.025Z,9.50
2022-11-03T08:33:44.590Z,9.50
2022-11-03T08:36:15.167Z,9.60
2022-11-03T08:38:46.408Z,9.60
2022-11-03T08:41:15.077Z,9.70
2022-11-03T08:43:46.832Z,9.80
2022-11-03T08:46:18.046Z,9.80
2022-11-03T08:48:48.269Z,9.90
2022-11-03T08:51:17.362Z,10.00
2022-11-03T08:53:46.522Z,10.10
2022-11-03T08:56:17.021Z,10.10
2022-11-03T08:58:47.685Z,10.10
2022-11-03T09:01:16.289Z,10.20
2022-11-03T09:03:44.756Z,10.20
2022-11-03T09:06:15.215Z,10.20
2022-11-03T09:11:32.091Z,10.40
2022-11-03T09:14:00.306Z,10.40
2022-11-03T09:16:28.598Z,10.40
2022-11-03T09:18:56.886Z,10.40
2022-11-03T09:21:26.589Z,10.50
2022-11-03T09:23:55.017Z,10.50
2022-11-03T09:26:23.459Z,10.50
2022-11-03T09:28:51.717Z,10.50
2022-11-03T09:31:20.727Z,10.60
2022-11-03T09:33:49.018Z,10.60
2022-11-03T09:36:17.352Z,10.70
2022-11-03T09:38:47.002Z,10.70
2022-11-03T09:41:26.311Z,10.80
2022-11-03T09:43:58.545Z,10.80
2022-11-03T09:46:28.194Z,10.90
2022-11-03T09:48:57.507Z,11.00
2022-11-03T09:51:28.315Z,11.00
2022-11-03T09:54:03.567Z,11.00
2022-11-03T09:56:32.581Z,11.10
2022-11-03T09:59:01.390Z,11.10
2022-11-03T10:01:29.820Z,11.30
2022-11-03T10:04:02.404Z,11.30
2022-11-03T10:06:31.216Z,11.40
2022-11-03T10:09:01.149Z,11.40
2022-11-03T10:11:31.449Z,11.40
2022-11-03T10:14:20.921Z,11.60
2022-11-03T10:16:53.834Z,11.80
2022-11-03T10:19:24.679Z,11.60
2022-11-03T10:21:55.267Z,11.60
2022-11-03T10:24:49.492Z,11.60
2022-11-03T10:27:27.247Z,11.70
2022-11-03T10:30:10.442Z,11.70
2022-11-03T10:32:42.648Z,11.80
2022-11-03T10:35:36.419Z,11.90
2022-11-03T10:38:27.323Z,11.90
2022-11-03T10:40:57.604Z,12.00
2022-11-03T10:43:31.019Z,12.10
2022-11-03T10:49:18.170Z,12.50
2022-11-03T10:51:50.715Z,12.80
2022-11-03T10:54:25.066Z,13.20
2022-11-03T10:57:12.167Z,13.60
2022-11-03T10:59:43.430Z,13.70
2022-11-03T11:02:18.743Z,13.60
2022-11-03T11:04:49.650Z,14.00
2022-11-03T11:07:34.016Z,13.80
2022-11-03T11:10:08.939Z,14.10
2022-11-03T11:12:38.961Z,14.40
2022-11-03T11:15:37.938Z,14.20
2022-11-03T11:18:11.609Z,14.10
2022-11-03T11:20:42.804Z,14.00
2022-11-03T11:23:49.385Z,13.60
2022-11-03T11:26:33.102Z,13.30
2022-11-03T11:29:46.468Z,13.10
2022-11-03T11:33:00.287Z,13.00
2022-11-03T11:36:07.715Z,12.90
2022-11-03T11:39:10.292Z,12.80
2022-11-03T11:42:07.780Z,12.80
2022-11-03T11:44:49.935Z,12.70
2022-11-03T11:47:47.289Z,12.60
2022-11-03T11:50:23.822Z,12.60
2022-11-03T11:52:58.857Z,12.60
2022-11-03T11:55:33.419Z,12.60
2022-11-03T11:58:04.340Z,12.50
2022-11-03T12:00:34.381Z,12.50
2022-11-03T12:03:04.899Z,12.50
2022-11-03T12:05:35.973Z,12.40
2022-11-03T12:08:17.793Z,12.40
2022-11-03T12:10:55.291Z,12.40
2022-11-03T12:13:48.177Z,12.40
2022-11-03T12:16:35.903Z,12.40
2022-11-03T12:19:36.307Z,12.30
2022-11-03T12:22:05.470Z,12.30
2022-11-03T12:24:49.167Z,12.30
2022-11-03T12:27:42.542Z,12.30
2022-11-03T12:30:19.722Z,12.30
2022-11-03T12:32:48.927Z,12.40
2022-11-03T12:35:17.360Z,12.50
2022-11-03T12:37:46.397Z,12.50
2022-11-03T12:40:15.497Z,12.50
2022-11-03T12:42:45.822Z,12.60
2022-11-03T12:45:14.711Z,12.60
2022-11-03T12:47:42.893Z,12.60
2022-11-03T12:50:11.495Z,12.60
2022-11-03T12:52:39.726Z,12.60
2022-11-03T12:55:08.559Z,12.60
2022-11-03T12:57:36.873Z,12.60
2022-11-03T13:00:08.062Z,12.60
2022-11-03T13:02:36.375Z,12.50
2022-11-03T13:05:05.138Z,12.50
2022-11-03T13:07:34.885Z,12.50
2022-11-03T13:10:04.960Z,12.50
2022-11-03T13:12:33.931Z,12.50
2022-11-03T13:15:04.695Z,12.40
2022-11-03T13:17:51.853Z,12.40
2022-11-03T13:20:22.751Z,12.40
2022-11-03T13:22:51.059Z,12.30
2022-11-03T13:25:19.753Z,12.30
2022-11-03T13:27:53.905Z,12.20
2022-11-03T13:30:22.779Z,12.20
2022-11-03T13:32:55.835Z,12.20
2022-11-03T13:35:24.439Z,12.20
2022-11-03T13:37:53.210Z,12.20
2022-11-03T13:43:10.531Z,12.20
2022-11-03T13:45:42.043Z,12.20
2022-11-03T13:51:02.059Z,12.20
2022-11-03T13:56:28.011Z,12.10
2022-11-03T14:01:48.307Z,12.10
2022-11-03T14:07:10.326Z,12.00
2022-11-03T14:09:45.328Z,11.90
2022-11-03T14:12:34.798Z,11.90
2022-11-03T14:15:05.464Z,11.80
2022-11-03T14:17:37.892Z,11.70
2022-11-03T14:20:17.047Z,11.60
2022-11-03T14:22:47.779Z,11.40
2022-11-03T14:25:17.860Z,11.30
2022-11-03T14:28:00.575Z,11.20
2022-11-03T14:30:30.498Z,11.10
2022-11-03T14:33:02.632Z,11.00
2022-11-03T14:35:39.973Z,10.90
2022-11-03T14:38:12.769Z,10.80
2022-11-03T14:40:58.888Z,10.70
2022-11-03T14:43:46.167Z,10.60
2022-11-03T14:46:19.423Z,10.40
2022-11-03T14:48:48.114Z,10.30
2022-11-03T14:51:29.747Z,10.20
2022-11-03T14:53:58.822Z,10.00
2022-11-03T14:56:27.528Z,9.80
2022-11-03T14:58:57.756Z,9.70
2022-11-03T15:01:41.629Z,9.50
2022-11-03T15:04:26.556Z,9.40
2022-11-03T15:06:56.848Z,9.20
2022-11-03T15:09:25.704Z,9.00
2022-11-03T15:12:00.619Z,8.90
2022-11-03T15:14:32.477Z,8.70
2022-11-03T15:17:09.067Z,8.60
2022-11-03T15:19:41.628Z,8.50
2022-11-03T15:22:14.855Z,8.30
2022-11-03T15:27:46.535Z,8.10
2022-11-03T15:30:23.933Z,8.10
2022-11-03T15:33:26.531Z,7.90
2022-11-03T15:36:13.518Z,7.80
2022-11-03T15:39:02.542Z,7.70
2022-11-03T15:41:51.120Z,7.60
2022-11-03T15:44:25.041Z,7.60
2022-11-03T15:46:58.158Z,7.50
2022-11-03T15:49:28.803Z,7.40
2022-11-03T15:52:01.884Z,7.30
2022-11-03T15:54:47.542Z,7.20
2022-11-03T15:57:24.661Z,7.20
2022-11-03T15:59:57.952Z,7.10
2022-11-03T16:02:47.201Z,7.10
2022-11-03T16:05:25.148Z,7.00
2022-11-03T16:08:06.146Z,6.90
2022-11-03T16:10:49.585Z,6.80
2022-11-03T16:13:23.292Z,6.70
2022-11-03T16:15:57.819Z,6.70
2022-11-03T16:18:31.848Z,6.60
2022-11-03T16:21:08.955Z,6.60
2022-11-03T16:23:39.521Z,6.50
2022-11-03T16:26:28.612Z,6.40
2022-11-03T16:28:58.748Z,6.30
2022-11-03T16:31:29.399Z,6.30
2022-11-03T16:34:09.235Z,6.20
2022-11-03T16:36:47.920Z,6.10
2022-11-03T16:39:33.537Z,6.10
2022-11-03T16:42:06.383Z,6.00
2022-11-03T16:44:36.203Z,5.90
2022-11-03T16:47:09.271Z,5.90
2022-11-03T16:49:46.390Z,6.00
2022-11-03T16:52:27.180Z,5.80
2022-11-03T16:55:17.159Z,5.70
2022-11-03T16:58:01.695Z,5.60
2022-11-03T17:00:30.535Z,5.60
2022-11-03T17:02:59.860Z,5.50
2022-11-03T17:05:28.421Z,5.50
2022-11-03T17:07:57.237Z,5.50
2022-11-03T17:10:27.453Z,5.40
2022-11-03T17:12:57.645Z,5.40
2022-11-03T17:15:37.695Z,5.40
2022-11-03T17:18:08.163Z,5.30
2022-11-03T17:20:38.321Z,5.30
2022-11-03T17:23:07.017Z,5.30
2022-11-03T17:25:36.270Z,5.20
2022-11-03T17:28:07.584Z,5.20
2022-11-03T17:30:38.062Z,5.20
2022-11-03T17:33:08.961Z,5.20
2022-11-03T17:35:41.179Z,5.20
2022-11-03T17:38:18.522Z,5.10
2022-11-03T17:40:48.817Z,5.10
2022-11-03T17:43:25.438Z,5.10
2022-11-03T17:45:56.382Z,5.20
2022-11-03T17:48:24.938Z,5.30
2022-11-03T17:50:59.250Z,5.20
2022-11-03T17:53:31.358Z,5.20
2022-11-03T17:56:29.654Z,5.20
2022-11-03T17:58:51.751Z,5.20
2022-11-03T18:01:27.383Z,5.10
2022-11-03T18:04:08.684Z,5.10
2022-11-03T18:06:39.530Z,5.10
2022-11-03T18:09:26.531Z,5.10
2022-11-03T18:12:15.549Z,5.10
2022-11-03T18:14:46.579Z,5.10
2022-11-03T18:17:20.402Z,5.10
2022-11-03T18:19:57.230Z,5.00
2022-11-03T18:22:26.047Z,5.00
2022-11-03T18:24:54.835Z,4.90
2022-11-03T18:27:25.382Z,4.90
2022-11-03T18:29:57.778Z,4.90
2022-11-03T18:32:35.502Z,4.80
2022-11-03T18:35:09.301Z,4.80
2022-11-03T18:37:46.763Z,4.80
2022-11-03T18:40:27.198Z,4.70
2022-11-03T18:43:00.148Z,4.70
2022-11-03T18:45:36.789Z,4.60
2022-11-03T18:48:15.283Z,4.60
2022-11-03T18:50:44.381Z,4.50
2022-11-03T18:53:22.302Z,4.50
2022-11-03T18:56:01.487Z,4.30
2022-11-03T18:58:37.386Z,4.50
2022-11-03T19:01:10.117Z,4.50
2022-11-03T19:03:44.991Z,4.40
2022-11-03T19:06:14.880Z,4.40
2022-11-03T19:08:44.160Z,4.40
2022-11-03T19:11:13.388Z,4.40
2022-11-03T19:13:46.410Z,4.40
2022-11-03T19:16:21.080Z,4.30
2022-11-03T19:18:52.159Z,4.30
2022-11-03T19:21:24.396Z,4.30
2022-11-03T19:23:57.996Z,4.30
2022-11-03T19:26:30.533Z,4.30
2022-11-03T19:29:03.146Z,4.30
2022-11-03T19:31:38.732Z,4.30
2022-11-03T19:34:15.146Z,4.30
2022-11-03T19:36:43.920Z,4.30
2022-11-03T19:39:19.841Z,4.40
2022-11-03T19:42:05.516Z,4.40
2022-11-03T19:47:15.654Z,4.60
2022-11-03T19:49:44.316Z,4.70
2022-11-03T19:52:14.716Z,4.60
2022-11-03T19:54:45.825Z,4.60
2022-11-03T19:57:16.827Z,4.70
2022-11-03T19:59:48.439Z,4.70
2022-11-03T20:02:18.294Z,4.80
2022-11-03T20:04:52.753Z,4.80
2022-11-03T20:07:21.314Z,4.80
2022-11-03T20:09:50.628Z,4.80
2022-11-03T20:12:20.257Z,4.80
2022-11-03T20:14:48.622Z,4.80
2022-11-03T20:17:21.604Z,5.00
2022-11-03T20:19:50.036Z,4.90
2022-11-03T20:22:22.898Z,5.00
2022-11-03T20:24:51.640Z,5.10
2022-11-03T20:27:21.799Z,5.20
2022-11-03T20:29:50.159Z,5.10
2022-11-03T20:32:20.045Z,5.20
2022-11-03T20:34:48.643Z,5.20
2022-11-03T20:37:21.383Z,5.20
2022-11-03T20:39:51.776Z,5.20
2022-11-03T20:42:23.444Z,5.20
2022-11-03T20:44:56.840Z,5.20
2022-11-03T20:47:28.504Z,5.20
2022-11-03T20:49:57.246Z,5.20
2022-11-03T20:52:31.855Z,5.20
2022-11-03T20:55:00.638Z,5.20
2022-11-03T20:57:38.924Z,5.20
2022-11-03T21:00:09.686Z,5.20
2022-11-03T21:02:39.854Z,5.20
2022-11-03T21:05:19.981Z,5.10
2022-11-03T21:07:49.231Z,5.20
2022-11-03T21:10:20.749Z,5.20
2022-11-03T21:12:53.281Z,5.20
2022-11-03T21:16:03.783Z,5.20
2022-11-03T21:18:53.394Z,5.20
2022-11-03T21:21:22.169Z,5.20
2022-11-03T21:23:50.547Z,5.10
2022-11-03T21:26:20.655Z,5.20
2022-11-03T21:28:48.987Z,5.20
2022-11-03T21:31:17.565Z,5.30
2022-11-03T21:33:47.446Z,5.40
2022-11-03T21:36:15.841Z,5.40
2022-11-03T21:38:44.151Z,5.30
2022-11-03T21:41:44.820Z,5.30
2022-11-03T21:44:18.940Z,5.30
2022-11-03T21:46:48.181Z,5.20
2022-11-03T21:49:35.814Z,5.10
2022-11-03T21:52:04.315Z,5.10
2022-11-03T21:54:32.725Z,5.20
2022-11-03T21:57:01.555Z,5.20
2022-11-03T21:59:30.171Z,5.10
2022-11-03T22:01:58.510Z,5.20
2022-11-03T22:04:28.595Z,5.20
2022-11-03T22:06:57.797Z,5.30
2022-11-03T22:09:27.444Z,5.30
2022-11-03T22:11:56.304Z,5.30
2022-11-03T22:14:26.612Z,5.20
2022-11-03T22:16:56.209Z,5.20
2022-11-03T22:19:41.772Z,5.20
2022-11-03T22:22:31.510Z,5.20
2022-11-03T22:25:17.487Z,5.10
2022-11-03T22:27:46.421Z,5.10
2022-11-03T22:30:31.862Z,5.00
2022-11-03T22:33:00.270Z,5.00
2022-11-03T22:35:46.155Z,5.00
2022-11-03T22:38:17.509Z,5.00
2022-11-03T22:41:06.091Z,4.90
2022-11-03T22:43:55.088Z,4.90
2022-11-03T22:46:23.361Z,4.80
2022-11-03T22:48:51.672Z,4.70
2022-11-03T22:51:19.946Z,4.60
2022-11-03T22:54:07.056Z,4.50
2022-11-03T22:56:35.359Z,4.50
2022-11-03T22:59:03.671Z,4.50
2022-11-03T23:01:32.136Z,4.40
2022-11-03T23:04:01.096Z,4.30
2022-11-03T23:06:34.749Z,4.30
2022-11-03T23:09:06.069Z,4.30
2022-11-03T23:11:35.351Z,4.20
2022-11-03T23:14:05.257Z,4.30
2022-11-03T23:16:35.433Z,4.20
2022-11-03T23:19:22.288Z,4.20
2022-11-03T23:21:52.406Z,4.20
2022-11-03T23:24:43.949Z,4.20
2022-11-03T23:27:14.834Z,4.10
2022-11-03T23:29:43.174Z,4.10
2022-11-03T23:32:11.682Z,4.20
2022-11-03T23:34:41.024Z,4.20
2022-11-03T23:37:09.438Z,4.30
2022-11-03T23:39:39.310Z,4.20
2022-11-03T23:42:08.318Z,4.20
2022-11-03T23:44:50.564Z,4.30
2022-11-03T23:47:36.645Z,4.30
2022-11-03T23:50:05.542Z,4.50
2022-11-03T23:52:33.995Z,4.60
2022-11-03T23:55:05.986Z,4.60
2022-11-03T23:57:52.150Z,4.70
